Ayersville, North Carolina
Current Conditions -  °F | °C
As of 11:15 PM on Thursday 27 Nov 2014 (Local Time) from KSIF Reporting Station
Broken Clouds Broken Clouds  
Wind Chill: 30°   Ceiling: 5000
Heat Index: 34°   Visibility: 10mi
Dew Point: 21°   Wind: 5mph
Humidity: 57%   Direction: 300°WNW
Pressure: 30.28"   Gusts: NA
Location:  36.4479°N, 79.9473°W
Report Text: KSIF 280415Z AUTO 30004KT 10SM BKN050 01/M06 A3028 RMK AO2 P0001 T00131063
Loading
Personal Weather Stations






























Interactive Weather Map New forecast layout! Learn more

10-Day Weather Forecast

Advertisements
Track Severe Weather on mobile